sensor_id;sensor_type;location;lat;lon;timestamp;pressure;altitude;pressure_sealevel;temperature;humidity
163;BME280;3946;48.958;8.284;2023-08-12T00:01:23;100624.84;;;19.96;100.00
163;BME280;3946;48.958;8.284;2023-08-12T00:04:10;100619.31;;;20.07;100.00
163;BME280;3946;48.958;8.284;2023-08-12T00:06:58;100625.31;;;20.17;100.00
163;BME280;3946;48.958;8.284;2023-08-12T00:09:43;100624.34;;;20.18;100.00
163;BME280;3946;48.958;8.284;2023-08-12T00:12:28;100617.28;;;20.37;100.00
163;BME280;3946;48.958;8.284;2023-08-12T00:15:13;100618.81;;;20.73;100.00
163;BME280;3946;48.958;8.284;2023-08-12T00:17:57;100597.59;;;20.75;100.00
163;BME280;3946;48.958;8.284;2023-08-12T00:20:44;100596.44;;;20.77;100.00
163;BME280;3946;48.958;8.284;2023-08-12T00:23:29;100602.19;;;20.47;100.00
163;BME280;3946;48.958;8.284;2023-08-12T00:26:14;100599.59;;;20.29;100.00
163;BME280;3946;48.958;8.284;2023-08-12T00:28:59;100598.53;;;20.40;100.00
163;BME280;3946;48.958;8.284;2023-08-12T00:31:44;100597.94;;;20.28;100.00
163;BME280;3946;48.958;8.284;2023-08-12T00:34:29;100590.34;;;20.25;100.00
163;BME280;3946;48.958;8.284;2023-08-12T00:37:15;100592.50;;;20.30;100.00
163;BME280;3946;48.958;8.284;2023-08-12T00:40:00;100589.34;;;20.44;100.00
163;BME280;3946;48.958;8.284;2023-08-12T00:42:45;100587.59;;;20.35;100.00
163;BME280;3946;48.958;8.284;2023-08-12T00:45:30;100589.03;;;20.47;100.00
163;BME280;3946;48.958;8.284;2023-08-12T00:48:15;100584.94;;;20.52;100.00
163;BME280;3946;48.958;8.284;2023-08-12T00:51:01;100586.72;;;20.44;100.00
163;BME280;3946;48.958;8.284;2023-08-12T00:53:48;100598.69;;;20.38;100.00
163;BME280;3946;48.958;8.284;2023-08-12T00:56:35;100591.22;;;20.34;100.00
163;BME280;3946;48.958;8.284;2023-08-12T00:59:20;100597.56;;;20.23;100.00
163;BME280;3946;48.958;8.284;2023-08-12T01:02:06;100606.91;;;20.17;100.00
163;BME280;3946;48.958;8.284;2023-08-12T01:04:52;100614.94;;;20.16;100.00
163;BME280;3946;48.958;8.284;2023-08-12T01:07:37;100615.56;;;20.10;100.00
163;BME280;3946;48.958;8.284;2023-08-12T01:10:23;100612.56;;;20.05;100.00
163;BME280;3946;48.958;8.284;2023-08-12T01:13:13;100619.09;;;20.01;100.00
163;BME280;3946;48.958;8.284;2023-08-12T01:16:01;100621.03;;;19.99;100.00
163;BME280;3946;48.958;8.284;2023-08-12T01:18:48;100620.06;;;20.00;100.00
163;BME280;3946;48.958;8.284;2023-08-12T01:21:34;100609.78;;;19.88;100.00
163;BME280;3946;48.958;8.284;2023-08-12T01:24:24;100618.13;;;19.84;100.00
163;BME280;3946;48.958;8.284;2023-08-12T01:27:09;100616.41;;;19.92;100.00
163;BME280;3946;48.958;8.284;2023-08-12T01:29:55;100614.66;;;19.83;100.00
163;BME280;3946;48.958;8.284;2023-08-12T01:32:41;100622.72;;;19.82;100.00
163;BME280;3946;48.958;8.284;2023-08-12T01:35:28;100619.78;;;19.85;100.00
163;BME280;3946;48.958;8.284;2023-08-12T01:38:14;100619.78;;;19.85;100.00
163;BME280;3946;48.958;8.284;2023-08-12T01:41:02;100625.03;;;19.85;100.00
163;BME280;3946;48.958;8.284;2023-08-12T01:43:47;100621.44;;;19.86;100.00
163;BME280;3946;48.958;8.284;2023-08-12T01:46:33;100622.69;;;20.00;100.00
163;BME280;3946;48.958;8.284;2023-08-12T01:49:19;100624.84;;;19.96;100.00
163;BME280;3946;48.958;8.284;2023-08-12T01:52:06;100622.41;;;20.03;100.00
163;BME280;3946;48.958;8.284;2023-08-12T01:54:51;100619.91;;;20.01;100.00
163;BME280;3946;48.958;8.284;2023-08-12T01:57:37;100617.59;;;19.98;100.00
163;BME280;3946;48.958;8.284;2023-08-12T02:00:24;100613.44;;;20.13;100.00
163;BME280;3946;48.958;8.284;2023-08-12T02:03:09;100602.97;;;20.21;100.00
163;BME280;3946;48.958;8.284;2023-08-12T02:05:54;100609.34;;;20.11;100.00
163;BME280;3946;48.958;8.284;2023-08-12T02:08:39;100602.72;;;20.07;100.00
163;BME280;3946;48.958;8.284;2023-08-12T02:11:24;100602.19;;;20.03;100.00
163;BME280;3946;48.958;8.284;2023-08-12T02:14:12;100589.09;;;20.11;100.00
163;BME280;3946;48.958;8.284;2023-08-12T02:16:57;100572.53;;;20.37;100.00
163;BME280;3946;48.958;8.284;2023-08-12T02:19:42;100566.50;;;20.44;100.00
163;BME280;3946;48.958;8.284;2023-08-12T02:22:27;100574.53;;;20.43;100.00
163;BME280;3946;48.958;8.284;2023-08-12T02:25:13;100570.84;;;20.36;100.00
163;BME280;3946;48.958;8.284;2023-08-12T02:27:58;100584.41;;;20.41;100.00
163;BME280;3946;48.958;8.284;2023-08-12T02:30:44;100581.09;;;20.39;100.00
163;BME280;3946;48.958;8.284;2023-08-12T02:33:29;100589.41;;;20.34;100.00
163;BME280;3946;48.958;8.284;2023-08-12T02:36:14;100585.94;;;20.51;100.00
163;BME280;3946;48.958;8.284;2023-08-12T02:38:59;100582.78;;;20.48;100.00
163;BME280;3946;48.958;8.284;2023-08-12T02:41:43;100582.31;;;20.52;100.00
163;BME280;3946;48.958;8.284;2023-08-12T02:44:28;100576.94;;;20.62;100.00
163;BME280;3946;48.958;8.284;2023-08-12T02:47:15;100569.69;;;20.64;100.00
163;BME280;3946;48.958;8.284;2023-08-12T02:49:59;100566.75;;;20.67;100.00
163;BME280;3946;48.958;8.284;2023-08-12T02:52:44;100560.81;;;20.65;100.00
163;BME280;3946;48.958;8.284;2023-08-12T02:55:29;100566.06;;;20.57;100.00
163;BME280;3946;48.958;8.284;2023-08-12T02:58:16;100562.69;;;20.47;100.00
163;BME280;3946;48.958;8.284;2023-08-12T03:01:01;100554.56;;;20.58;100.00
163;BME280;3946;48.958;8.284;2023-08-12T03:03:49;100554.84;;;20.55;100.00
163;BME280;3946;48.958;8.284;2023-08-12T03:06:34;100551.72;;;20.51;100.00
163;BME280;3946;48.958;8.284;2023-08-12T03:09:18;100545.00;;;20.57;100.00
163;BME280;3946;48.958;8.284;2023-08-12T03:12:04;100543.88;;;20.68;100.00
163;BME280;3946;48.958;8.284;2023-08-12T03:14:50;100537.13;;;20.65;100.00
163;BME280;3946;48.958;8.284;2023-08-12T03:17:35;100542.28;;;20.75;100.00
163;BME280;3946;48.958;8.284;2023-08-12T03:20:24;100528.81;;;20.78;100.00
163;BME280;3946;48.958;8.284;2023-08-12T03:23:09;100532.59;;;20.83;100.00
163;BME280;3946;48.958;8.284;2023-08-12T03:25:55;100527.84;;;20.95;100.00
163;BME280;3946;48.958;8.284;2023-08-12T03:28:39;100534.81;;;21.04;100.00
163;BME280;3946;48.958;8.284;2023-08-12T03:31:26;100535.94;;;20.93;100.00
163;BME280;3946;48.958;8.284;2023-08-12T03:34:11;100535.53;;;20.80;100.00
163;BME280;3946;48.958;8.284;2023-08-12T03:36:59;100538.50;;;20.77;100.00
163;BME280;3946;48.958;8.284;2023-08-12T03:39:45;100535.22;;;20.75;100.00
163;BME280;3946;48.958;8.284;2023-08-12T03:42:30;100524.84;;;20.82;100.00
163;BME280;3946;48.958;8.284;2023-08-12T03:45:19;100531.81;;;20.91;100.00
163;BME280;3946;48.958;8.284;2023-08-12T03:48:05;100538.53;;;20.85;100.00
163;BME280;3946;48.958;8.284;2023-08-12T03:50:50;100532.94;;;20.88;100.00
163;BME280;3946;48.958;8.284;2023-08-12T03:53:37;100529.59;;;20.78;100.00
163;BME280;3946;48.958;8.284;2023-08-12T03:56:22;100527.78;;;20.79;100.00
163;BME280;3946;48.958;8.284;2023-08-12T03:59:06;100531.44;;;20.78;100.00
163;BME280;3946;48.958;8.284;2023-08-12T04:01:51;100532.75;;;20.82;100.00
163;BME280;3946;48.958;8.284;2023-08-12T04:04:36;100525.97;;;20.79;100.00
163;BME280;3946;48.958;8.284;2023-08-12T04:07:21;100530.09;;;20.82;100.00
163;BME280;3946;48.958;8.284;2023-08-12T04:10:10;100530.59;;;20.77;100.00
163;BME280;3946;48.958;8.284;2023-08-12T04:12:55;100534.56;;;20.81;100.00
163;BME280;3946;48.958;8.284;2023-08-12T04:15:40;100533.25;;;20.77;100.00
163;BME280;3946;48.958;8.284;2023-08-12T04:18:25;100542.66;;;20.88;100.00
163;BME280;3946;48.958;8.284;2023-08-12T04:21:10;100529.78;;;20.85;100.00
163;BME280;3946;48.958;8.284;2023-08-12T04:23:56;100527.31;;;20.75;100.00
163;BME280;3946;48.958;8.284;2023-08-12T04:26:42;100541.09;;;20.69;100.00
163;BME280;3946;48.958;8.284;2023-08-12T04:29:28;100536.19;;;20.74;100.00
163;BME280;3946;48.958;8.284;2023-08-12T04:32:13;100535.97;;;20.68;100.00
163;BME280;3946;48.958;8.284;2023-08-12T04:34:59;100534.72;;;20.80;100.00
163;BME280;3946;48.958;8.284;2023-08-12T04:37:44;100537.06;;;20.91;100.00
163;BME280;3946;48.958;8.284;2023-08-12T04:40:29;100540.13;;;21.20;100.00
163;BME280;3946;48.958;8.284;2023-08-12T04:43:16;100545.25;;;21.30;100.00
163;BME280;3946;48.958;8.284;2023-08-12T04:46:02;100544.16;;;20.99;100.00
163;BME280;3946;48.958;8.284;2023-08-12T04:48:47;100549.13;;;21.02;100.00
163;BME280;3946;48.958;8.284;2023-08-12T04:51:32;100550.09;;;21.01;100.00
163;BME280;3946;48.958;8.284;2023-08-12T04:54:17;100536.34;;;20.81;100.00
163;BME280;3946;48.958;8.284;2023-08-12T04:57:02;100522.03;;;20.75;100.00
163;BME280;3946;48.958;8.284;2023-08-12T04:59:48;100531.53;;;20.68;100.00
163;BME280;3946;48.958;8.284;2023-08-12T05:02:34;100521.69;;;20.70;100.00
163;BME280;3946;48.958;8.284;2023-08-12T05:05:20;100525.91;;;20.63;100.00
163;BME280;3946;48.958;8.284;2023-08-12T05:08:05;100518.00;;;20.63;100.00
163;BME280;3946;48.958;8.284;2023-08-12T05:10:52;100524.63;;;21.09;100.00
163;BME280;3946;48.958;8.284;2023-08-12T05:13:38;100517.66;;;20.92;100.00
163;BME280;3946;48.958;8.284;2023-08-12T05:16:24;100514.66;;;20.87;100.00
163;BME280;3946;48.958;8.284;2023-08-12T05:19:09;100519.78;;;20.96;100.00
163;BME280;3946;48.958;8.284;2023-08-12T05:21:59;100526.59;;;21.15;100.00
163;BME280;3946;48.958;8.284;2023-08-12T05:24:47;100532.38;;;21.19;100.00
163;BME280;3946;48.958;8.284;2023-08-12T05:27:43;100528.78;;;21.28;100.00
163;BME280;3946;48.958;8.284;2023-08-12T05:30:40;100532.59;;;21.34;100.00
163;BME280;3946;48.958;8.284;2023-08-12T05:37:02;100538.06;;;21.73;100.00
163;BME280;3946;48.958;8.284;2023-08-12T05:39:52;100533.75;;;21.47;100.00
163;BME280;3946;48.958;8.284;2023-08-12T05:43:06;100543.94;;;21.34;100.00
163;BME280;3946;48.958;8.284;2023-08-12T05:46:07;100539.00;;;21.23;100.00
163;BME280;3946;48.958;8.284;2023-08-12T05:56:08;100540.53;;;22.62;97.62
163;BME280;3946;48.958;8.284;2023-08-12T05:58:54;100533.13;;;23.27;92.24
163;BME280;3946;48.958;8.284;2023-08-12T06:01:39;100540.25;;;23.50;90.40
163;BME280;3946;48.958;8.284;2023-08-12T06:04:24;100548.44;;;23.09;91.88
163;BME280;3946;48.958;8.284;2023-08-12T06:07:09;100544.97;;;22.78;94.57
163;BME280;3946;48.958;8.284;2023-08-12T06:09:53;100535.25;;;22.62;95.52
163;BME280;3946;48.958;8.284;2023-08-12T06:12:40;100536.44;;;22.98;95.08
163;BME280;3946;48.958;8.284;2023-08-12T06:15:24;100543.63;;;23.13;92.02
163;BME280;3946;48.958;8.284;2023-08-12T06:18:09;100548.47;;;23.32;90.67
163;BME280;3946;48.958;8.284;2023-08-12T06:20:54;100533.53;;;23.16;92.00
163;BME280;3946;48.958;8.284;2023-08-12T06:23:39;100531.31;;;23.28;92.85
163;BME280;3946;48.958;8.284;2023-08-12T06:26:25;100529.97;;;23.55;92.80
163;BME280;3946;48.958;8.284;2023-08-12T06:29:23;100531.41;;;24.18;88.83
163;BME280;3946;48.958;8.284;2023-08-12T06:32:13;100530.75;;;24.01;89.79
163;BME280;3946;48.958;8.284;2023-08-12T06:34:58;100544.97;;;23.62;91.02
163;BME280;3946;48.958;8.284;2023-08-12T06:37:45;100545.69;;;23.02;93.88
163;BME280;3946;48.958;8.284;2023-08-12T06:40:34;100538.91;;;23.31;95.02
163;BME280;3946;48.958;8.284;2023-08-12T06:43:19;100542.09;;;23.49;93.64
163;BME280;3946;48.958;8.284;2023-08-12T06:46:06;100537.13;;;23.46;92.98
163;BME280;3946;48.958;8.284;2023-08-12T06:48:53;100536.13;;;23.47;93.09
163;BME280;3946;48.958;8.284;2023-08-12T06:51:38;100527.19;;;23.25;93.00
163;BME280;3946;48.958;8.284;2023-08-12T06:54:23;100527.31;;;23.32;93.85
163;BME280;3946;48.958;8.284;2023-08-12T06:57:08;100522.06;;;24.07;90.58
163;BME280;3946;48.958;8.284;2023-08-12T06:59:55;100528.16;;;24.30;89.29
163;BME280;3946;48.958;8.284;2023-08-12T07:02:42;100533.13;;;24.11;89.50
163;BME280;3946;48.958;8.284;2023-08-12T07:05:26;100526.06;;;24.26;89.07
163;BME280;3946;48.958;8.284;2023-08-12T07:08:11;100535.13;;;24.08;90.61
163;BME280;3946;48.958;8.284;2023-08-12T07:10:56;100536.75;;;23.95;91.39
163;BME280;3946;48.958;8.284;2023-08-12T07:13:41;100528.25;;;24.37;90.54
163;BME280;3946;48.958;8.284;2023-08-12T07:16:30;100530.66;;;25.12;86.31
163;BME280;3946;48.958;8.284;2023-08-12T07:19:16;100529.06;;;25.60;85.54
163;BME280;3946;48.958;8.284;2023-08-12T07:22:01;100537.63;;;25.77;82.07
163;BME280;3946;48.958;8.284;2023-08-12T07:24:46;100526.41;;;25.82;82.42
163;BME280;3946;48.958;8.284;2023-08-12T07:27:31;100527.13;;;25.48;82.91
163;BME280;3946;48.958;8.284;2023-08-12T07:30:15;100522.56;;;25.20;83.94
163;BME280;3946;48.958;8.284;2023-08-12T07:33:00;100520.16;;;25.25;83.43
163;BME280;3946;48.958;8.284;2023-08-12T07:35:47;100516.47;;;25.05;84.79
163;BME280;3946;48.958;8.284;2023-08-12T07:38:32;100522.94;;;25.38;85.64
163;BME280;3946;48.958;8.284;2023-08-12T07:41:18;100513.19;;;26.51;80.64
163;BME280;3946;48.958;8.284;2023-08-12T07:44:04;100516.59;;;26.86;79.47
163;BME280;3946;48.958;8.284;2023-08-12T07:46:49;100524.16;;;26.82;79.43
163;BME280;3946;48.958;8.284;2023-08-12T07:49:34;100520.19;;;26.65;80.45
163;BME280;3946;48.958;8.284;2023-08-12T07:52:20;100519.84;;;26.05;80.22
163;BME280;3946;48.958;8.284;2023-08-12T07:55:05;100519.25;;;25.82;82.74
163;BME280;3946;48.958;8.284;2023-08-12T07:57:51;100509.34;;;26.25;81.72
163;BME280;3946;48.958;8.284;2023-08-12T08:00:36;100500.75;;;26.58;79.47
163;BME280;3946;48.958;8.284;2023-08-12T08:03:21;100496.66;;;27.16;76.42
163;BME280;3946;48.958;8.284;2023-08-12T08:06:06;100495.28;;;27.79;74.83
163;BME280;3946;48.958;8.284;2023-08-12T08:08:52;100497.16;;;27.59;74.79
163;BME280;3946;48.958;8.284;2023-08-12T08:11:37;100506.75;;;27.60;75.47
163;BME280;3946;48.958;8.284;2023-08-12T08:14:23;100504.69;;;27.62;74.91
163;BME280;3946;48.958;8.284;2023-08-12T08:17:07;100499.81;;;27.59;74.91
163;BME280;3946;48.958;8.284;2023-08-12T08:19:52;100492.63;;;27.73;73.55
163;BME280;3946;48.958;8.284;2023-08-12T08:22:37;100497.75;;;27.68;73.64
163;BME280;3946;48.958;8.284;2023-08-12T08:25:24;100492.81;;;27.78;73.77
163;BME280;3946;48.958;8.284;2023-08-12T08:28:09;100490.09;;;27.18;74.04
163;BME280;3946;48.958;8.284;2023-08-12T08:30:55;100494.16;;;27.01;75.82
163;BME280;3946;48.958;8.284;2023-08-12T08:33:39;100487.72;;;27.57;72.36
163;BME280;3946;48.958;8.284;2023-08-12T08:36:24;100479.06;;;28.07;71.73
163;BME280;3946;48.958;8.284;2023-08-12T08:39:09;100481.06;;;28.12;71.63
163;BME280;3946;48.958;8.284;2023-08-12T08:41:56;100477.16;;;28.41;71.03
163;BME280;3946;48.958;8.284;2023-08-12T08:44:41;100482.94;;;28.25;71.45
163;BME280;3946;48.958;8.284;2023-08-12T08:47:27;100489.88;;;28.26;72.24
163;BME280;3946;48.958;8.284;2023-08-12T08:50:12;100480.63;;;28.35;71.00
163;BME280;3946;48.958;8.284;2023-08-12T08:52:57;100479.63;;;28.80;70.27
163;BME280;3946;48.958;8.284;2023-08-12T08:55:42;100473.19;;;29.26;68.76
163;BME280;3946;48.958;8.284;2023-08-12T08:58:29;100480.56;;;28.99;68.81
163;BME280;3946;48.958;8.284;2023-08-12T09:01:15;100476.34;;;29.16;68.24
163;BME280;3946;48.958;8.284;2023-08-12T09:04:03;100482.72;;;29.15;69.86
163;BME280;3946;48.958;8.284;2023-08-12T09:06:48;100475.13;;;29.44;67.82
163;BME280;3946;48.958;8.284;2023-08-12T09:09:34;100475.41;;;29.04;68.07
163;BME280;3946;48.958;8.284;2023-08-12T09:12:20;100478.53;;;28.43;70.26
163;BME280;3946;48.958;8.284;2023-08-12T09:15:07;100480.47;;;28.10;72.13
163;BME280;3946;48.958;8.284;2023-08-12T09:17:53;100485.16;;;28.34;70.98
163;BME280;3946;48.958;8.284;2023-08-12T09:20:38;100480.28;;;28.05;72.68
163;BME280;3946;48.958;8.284;2023-08-12T09:23:22;100495.69;;;27.90;70.92
163;BME280;3946;48.958;8.284;2023-08-12T09:26:12;100495.88;;;27.42;71.02
163;BME280;3946;48.958;8.284;2023-08-12T09:28:58;100504.88;;;27.34;72.62
163;BME280;3946;48.958;8.284;2023-08-12T09:31:45;100493.88;;;27.57;70.56
163;BME280;3946;48.958;8.284;2023-08-12T09:34:30;100499.34;;;27.23;72.56
163;BME280;3946;48.958;8.284;2023-08-12T09:37:15;100506.91;;;27.32;73.81
163;BME280;3946;48.958;8.284;2023-08-12T09:40:03;100494.25;;;27.41;71.58
163;BME280;3946;48.958;8.284;2023-08-12T09:42:49;100506.78;;;27.73;72.80
163;BME280;3946;48.958;8.284;2023-08-12T09:45:34;100497.66;;;28.40;72.06
163;BME280;3946;48.958;8.284;2023-08-12T09:48:21;100472.44;;;28.74;67.47
163;BME280;3946;48.958;8.284;2023-08-12T09:51:06;100482.50;;;28.79;68.31
163;BME280;3946;48.958;8.284;2023-08-12T09:53:51;100488.44;;;28.16;69.56
163;BME280;3946;48.958;8.284;2023-08-12T09:56:37;100474.19;;;29.32;68.48
163;BME280;3946;48.958;8.284;2023-08-12T09:59:24;100465.97;;;29.58;66.22
163;BME280;3946;48.958;8.284;2023-08-12T10:02:09;100479.09;;;29.35;67.65
163;BME280;3946;48.958;8.284;2023-08-12T10:05:03;100468.94;;;29.50;66.72
163;BME280;3946;48.958;8.284;2023-08-12T10:07:48;100462.31;;;29.96;66.33
163;BME280;3946;48.958;8.284;2023-08-12T10:10:34;100457.09;;;29.64;66.46
163;BME280;3946;48.958;8.284;2023-08-12T10:13:20;100472.72;;;29.85;65.98
163;BME280;3946;48.958;8.284;2023-08-12T10:16:05;100481.22;;;29.76;66.29
163;BME280;3946;48.958;8.284;2023-08-12T10:18:50;100462.84;;;29.86;65.99
163;BME280;3946;48.958;8.284;2023-08-12T10:21:37;100460.72;;;30.31;65.11
163;BME280;3946;48.958;8.284;2023-08-12T10:24:22;100453.25;;;30.70;62.91
163;BME280;3946;48.958;8.284;2023-08-12T10:27:07;100472.19;;;31.16;63.64
163;BME280;3946;48.958;8.284;2023-08-12T10:29:52;100476.97;;;30.48;62.61
163;BME280;3946;48.958;8.284;2023-08-12T10:32:40;100487.75;;;30.41;63.37
163;BME280;3946;48.958;8.284;2023-08-12T10:35:39;100494.09;;;29.85;64.81
163;BME280;3946;48.958;8.284;2023-08-12T10:38:26;100511.88;;;29.48;65.18
163;BME280;3946;48.958;8.284;2023-08-12T10:41:18;100524.13;;;28.29;66.86
163;BME280;3946;48.958;8.284;2023-08-12T10:44:05;100534.81;;;28.02;67.33
163;BME280;3946;48.958;8.284;2023-08-12T10:46:50;100544.22;;;27.52;70.67
163;BME280;3946;48.958;8.284;2023-08-12T10:49:38;100555.50;;;26.93;75.89
163;BME280;3946;48.958;8.284;2023-08-12T10:52:26;100533.28;;;26.66;78.26
163;BME280;3946;48.958;8.284;2023-08-12T10:55:17;100521.63;;;26.26;81.18
163;BME280;3946;48.958;8.284;2023-08-12T10:58:02;100519.47;;;25.81;86.14
163;BME280;3946;48.958;8.284;2023-08-12T11:00:53;100521.34;;;25.23;90.85
163;BME280;3946;48.958;8.284;2023-08-12T11:03:41;100520.47;;;25.37;89.26
163;BME280;3946;48.958;8.284;2023-08-12T11:06:26;100519.97;;;25.27;92.48
163;BME280;3946;48.958;8.284;2023-08-12T11:09:12;100524.75;;;25.17;96.33
163;BME280;3946;48.958;8.284;2023-08-12T11:11:59;100524.19;;;25.00;94.08
163;BME280;3946;48.958;8.284;2023-08-12T11:14:48;100531.09;;;25.37;94.79
163;BME280;3946;48.958;8.284;2023-08-12T11:17:34;100529.34;;;26.21;89.73
163;BME280;3946;48.958;8.284;2023-08-12T11:20:19;100536.00;;;26.73;89.54
163;BME280;3946;48.958;8.284;2023-08-12T11:23:04;100529.41;;;26.69;89.25
163;BME280;3946;48.958;8.284;2023-08-12T11:25:50;100530.81;;;27.12;88.33
163;BME280;3946;48.958;8.284;2023-08-12T11:28:37;100515.81;;;26.92;87.08
163;BME280;3946;48.958;8.284;2023-08-12T11:31:22;100531.56;;;26.93;89.46
163;BME280;3946;48.958;8.284;2023-08-12T11:34:07;100535.94;;;27.07;86.96
163;BME280;3946;48.958;8.284;2023-08-12T11:36:52;100538.03;;;27.32;86.72
163;BME280;3946;48.958;8.284;2023-08-12T11:39:38;100531.31;;;27.56;84.54
163;BME280;3946;48.958;8.284;2023-08-12T11:42:23;100535.84;;;27.75;83.12
163;BME280;3946;48.958;8.284;2023-08-12T11:45:10;100528.69;;;27.89;84.34
163;BME280;3946;48.958;8.284;2023-08-12T11:47:55;100515.34;;;28.08;82.23
163;BME280;3946;48.958;8.284;2023-08-12T11:50:41;100508.97;;;28.74;81.74
163;BME280;3946;48.958;8.284;2023-08-12T11:53:26;100499.13;;;29.19;78.39
163;BME280;3946;48.958;8.284;2023-08-12T11:56:12;100507.59;;;28.65;78.34
163;BME280;3946;48.958;8.284;2023-08-12T11:58:57;100516.19;;;28.67;79.27
163;BME280;3946;48.958;8.284;2023-08-12T12:01:45;100508.88;;;28.55;78.89
163;BME280;3946;48.958;8.284;2023-08-12T12:04:32;100508.19;;;28.73;78.34
163;BME280;3946;48.958;8.284;2023-08-12T12:07:18;100498.69;;;28.77;78.00
163;BME280;3946;48.958;8.284;2023-08-12T12:10:04;100503.03;;;28.85;78.06
163;BME280;3946;48.958;8.284;2023-08-12T12:12:49;100501.91;;;28.99;78.95
163;BME280;3946;48.958;8.284;2023-08-12T12:15:37;100500.22;;;28.60;80.18
163;BME280;3946;48.958;8.284;2023-08-12T12:18:24;100498.09;;;28.82;77.11
163;BME280;3946;48.958;8.284;2023-08-12T12:21:10;100498.53;;;29.10;76.11
163;BME280;3946;48.958;8.284;2023-08-12T12:23:54;100486.50;;;29.01;78.30
163;BME280;3946;48.958;8.284;2023-08-12T12:26:39;100490.00;;;28.57;76.46
163;BME280;3946;48.958;8.284;2023-08-12T12:29:24;100489.94;;;28.70;72.69
163;BME280;3946;48.958;8.284;2023-08-12T12:32:09;100497.25;;;28.88;72.48
163;BME280;3946;48.958;8.284;2023-08-12T12:34:56;100501.84;;;29.44;72.75
163;BME280;3946;48.958;8.284;2023-08-12T12:37:40;100484.72;;;30.19;71.00
163;BME280;3946;48.958;8.284;2023-08-12T12:40:26;100478.41;;;29.89;68.63
163;BME280;3946;48.958;8.284;2023-08-12T12:43:11;100493.25;;;29.67;70.20
163;BME280;3946;48.958;8.284;2023-08-12T12:45:56;100487.13;;;29.59;69.44
163;BME280;3946;48.958;8.284;2023-08-12T12:48:41;100473.06;;;29.71;68.26
163;BME280;3946;48.958;8.284;2023-08-12T12:51:27;100486.41;;;29.46;69.32
163;BME280;3946;48.958;8.284;2023-08-12T12:54:12;100491.84;;;29.33;70.34
163;BME280;3946;48.958;8.284;2023-08-12T12:56:57;100484.06;;;29.56;68.49
163;BME280;3946;48.958;8.284;2023-08-12T12:59:42;100482.38;;;29.86;68.89
163;BME280;3946;48.958;8.284;2023-08-12T13:02:29;100481.00;;;29.77;66.47
163;BME280;3946;48.958;8.284;2023-08-12T13:05:20;100490.50;;;29.98;68.23
163;BME280;3946;48.958;8.284;2023-08-12T13:08:07;100476.91;;;30.00;66.88
163;BME280;3946;48.958;8.284;2023-08-12T13:11:05;100484.44;;;29.35;67.14
163;BME280;3946;48.958;8.284;2023-08-12T13:13:50;100488.28;;;29.07;67.86
163;BME280;3946;48.958;8.284;2023-08-12T13:16:35;100500.78;;;29.13;69.26
163;BME280;3946;48.958;8.284;2023-08-12T13:19:20;100479.97;;;29.78;66.41
163;BME280;3946;48.958;8.284;2023-08-12T13:22:05;100486.66;;;30.12;66.88
163;BME280;3946;48.958;8.284;2023-08-12T13:24:51;100481.03;;;30.69;65.31
163;BME280;3946;48.958;8.284;2023-08-12T13:27:36;100468.94;;;30.96;63.85
163;BME280;3946;48.958;8.284;2023-08-12T13:30:22;100468.38;;;31.06;63.63
163;BME280;3946;48.958;8.284;2023-08-12T13:33:07;100464.28;;;30.43;62.94
163;BME280;3946;48.958;8.284;2023-08-12T13:35:52;100467.22;;;30.53;64.10
163;BME280;3946;48.958;8.284;2023-08-12T13:38:36;100473.19;;;30.37;64.88
163;BME280;3946;48.958;8.284;2023-08-12T13:41:23;100456.31;;;29.82;65.11
163;BME280;3946;48.958;8.284;2023-08-12T13:44:08;100469.34;;;29.72;66.45
163;BME280;3946;48.958;8.284;2023-08-12T13:46:53;100463.97;;;29.97;66.05
163;BME280;3946;48.958;8.284;2023-08-12T13:49:38;100464.81;;;30.34;65.37
163;BME280;3946;48.958;8.284;2023-08-12T13:52:23;100467.94;;;30.12;66.02
163;BME280;3946;48.958;8.284;2023-08-12T13:55:09;100458.66;;;29.72;66.58
163;BME280;3946;48.958;8.284;2023-08-12T13:57:56;100448.03;;;30.08;65.67
163;BME280;3946;48.958;8.284;2023-08-12T14:00:41;100443.84;;;29.94;65.88
163;BME280;3946;48.958;8.284;2023-08-12T14:03:25;100465.56;;;29.05;69.53
163;BME280;3946;48.958;8.284;2023-08-12T14:06:10;100462.59;;;28.75;70.91
163;BME280;3946;48.958;8.284;2023-08-12T14:08:55;100461.16;;;28.41;72.06
163;BME280;3946;48.958;8.284;2023-08-12T14:11:40;100481.50;;;28.22;73.70
163;BME280;3946;48.958;8.284;2023-08-12T14:14:26;100479.09;;;27.88;75.40
163;BME280;3946;48.958;8.284;2023-08-12T14:17:12;100489.97;;;27.73;74.90
163;BME280;3946;48.958;8.284;2023-08-12T14:19:58;100450.81;;;27.47;76.81
163;BME280;3946;48.958;8.284;2023-08-12T14:22:43;100437.72;;;27.26;77.36
163;BME280;3946;48.958;8.284;2023-08-12T14:25:28;100433.19;;;27.00;80.08
163;BME280;3946;48.958;8.284;2023-08-12T14:28:13;100435.53;;;26.62;82.41
163;BME280;3946;48.958;8.284;2023-08-12T14:30:59;100458.25;;;26.71;84.07
163;BME280;3946;48.958;8.284;2023-08-12T14:33:45;100475.53;;;26.40;84.84
163;BME280;3946;48.958;8.284;2023-08-12T14:36:30;100486.31;;;26.32;86.21
163;BME280;3946;48.958;8.284;2023-08-12T14:39:15;100500.66;;;25.82;90.41
163;BME280;3946;48.958;8.284;2023-08-12T14:42:00;100525.78;;;24.50;100.00
163;BME280;3946;48.958;8.284;2023-08-12T14:44:46;100543.91;;;23.71;100.00
163;BME280;3946;48.958;8.284;2023-08-12T14:47:33;100542.88;;;23.27;100.00
163;BME280;3946;48.958;8.284;2023-08-12T14:50:17;100554.91;;;22.67;100.00
163;BME280;3946;48.958;8.284;2023-08-12T14:53:02;100554.66;;;22.30;100.00
163;BME280;3946;48.958;8.284;2023-08-12T14:55:47;100556.69;;;22.20;100.00
163;BME280;3946;48.958;8.284;2023-08-12T14:58:33;100585.38;;;22.31;100.00
163;BME280;3946;48.958;8.284;2023-08-12T15:01:18;100577.44;;;22.31;100.00
163;BME280;3946;48.958;8.284;2023-08-12T15:04:05;100577.94;;;22.26;100.00
163;BME280;3946;48.958;8.284;2023-08-12T15:06:50;100571.97;;;22.41;100.00
163;BME280;3946;48.958;8.284;2023-08-12T15:09:35;100574.94;;;22.54;100.00